Time;durP1;ratioP1;P1;durP2;ratioP2;P2;SDS_P1;SDS_P2;PMS_P1;PMS_P2;Temp;Humidity;BMP_temperature;BMP_pressure;BME280_temperature;BME280_humidity;BME280_pressure;Samples;Min_cycle;Max_cycle;Signal;HPM_P1;HPM_P2
2022/10/26 00:01:44;;;;;;;11.32;7.90;;;;;;;11.20;94.01;101071.22;4952141;28;20061;-83
2022/10/26 00:04:11;;;;;;;15.25;8.18;;;;;;;11.18;94.48;101069.63;4970888;28;20338;-83
2022/10/26 00:06:39;;;;;;;11.85;7.53;;;;;;;11.11;94.93;101067.28;4974991;28;20074;-83
2022/10/26 00:09:06;;;;;;;10.82;6.90;;;;;;;11.14;94.43;101068.94;4988804;28;20039;-84
2022/10/26 00:11:34;;;;;;;11.18;7.07;;;;;;;11.18;94.38;101073.09;4971510;28;20074;-82
2022/10/26 00:14:02;;;;;;;10.48;7.43;;;;;;;11.20;94.24;101068.59;4980023;28;20050;-83
2022/10/26 00:16:30;;;;;;;12.73;7.38;;;;;;;11.21;95.20;101069.44;4971480;28;20053;-84
2022/10/26 00:18:57;;;;;;;11.82;7.25;;;;;;;11.15;94.85;101063.56;4982770;28;20081;-83
2022/10/26 00:21:25;;;;;;;12.40;7.72;;;;;;;11.14;94.79;101072.41;4969475;28;20054;-83
2022/10/26 00:23:52;;;;;;;13.38;6.82;;;;;;;11.10;94.95;101072.66;4985254;28;20047;-84
2022/10/26 00:26:20;;;;;;;12.93;7.18;;;;;;;11.09;95.28;101078.88;4960701;28;20073;-84
2022/10/26 00:28:47;;;;;;;11.00;6.75;;;;;;;11.01;95.40;101076.63;4968808;28;20648;-83
2022/10/26 00:31:16;;;;;;;10.88;6.88;;;;;;;10.97;95.61;101072.47;4972363;28;20054;-84
2022/10/26 00:33:44;;;;;;;8.75;6.53;;;;;;;10.98;95.76;101075.94;4990080;28;20052;-84
2022/10/26 00:36:15;;;;;;;9.10;6.32;;;;;;;10.99;95.18;101080.31;4962482;28;20051;-82
2022/10/26 00:38:48;;;;;;;14.93;7.15;;;;;;;10.96;95.08;101091.84;4958539;28;20061;-83
2022/10/26 00:41:17;;;;;;;9.68;6.38;;;;;;;10.93;95.24;101094.63;4961661;28;20068;-82
2022/10/26 00:43:45;;;;;;;14.52;7.57;;;;;;;10.89;95.80;101098.34;5004474;28;20271;-83
2022/10/26 00:46:34;;;;;;;13.95;7.00;;;;;;;10.76;96.79;101092.91;5004247;28;20034;-84
2022/10/26 00:49:04;;;;;;;10.93;6.68;;;;;;;10.79;96.07;101097.13;4961352;28;20656;-83
2022/10/26 00:51:38;;;;;;;11.95;7.53;;;;;;;10.82;96.63;101099.63;4975241;28;20046;-83
2022/10/26 00:54:11;;;;;;;9.07;6.75;;;;;;;10.77;96.62;101096.38;4954697;28;20083;-82
2022/10/26 00:56:39;;;;;;;11.57;7.10;;;;;;;10.75;96.71;101095.59;4957674;28;20054;-84
2022/10/26 00:59:08;;;;;;;15.38;6.80;;;;;;;10.77;96.53;101093.75;4964220;28;20061;-82
2022/10/26 01:01:39;;;;;;;10.38;6.13;;;;;;;10.79;96.49;101086.59;4989038;28;20122;-81
2022/10/26 01:04:06;;;;;;;9.70;6.72;;;;;;;10.81;96.16;101088.25;4961956;28;20061;-81
2022/10/26 01:06:36;;;;;;;13.10;7.82;;;;;;;10.80;95.85;101081.25;4966298;28;20061;-83
2022/10/26 01:09:04;;;;;;;14.05;6.85;;;;;;;10.78;95.92;101079.66;5003142;28;20050;-82
2022/10/26 01:11:32;;;;;;;11.27;6.13;;;;;;;10.79;95.79;101078.72;4966777;28;20058;-82
2022/10/26 01:14:00;;;;;;;10.13;6.85;;;;;;;10.80;95.69;101085.66;4959385;28;20093;-84
2022/10/26 01:16:50;;;;;;;9.07;5.85;;;;;;;10.76;95.42;101082.38;4967906;28;20283;-83
2022/10/26 01:19:56;;;;;;;8.27;6.72;;;;;;;10.72;95.60;101085.25;5003558;28;20365;-83
2022/10/26 01:22:29;;;;;;;9.95;6.85;;;;;;;10.69;95.67;101074.84;4956776;28;20050;-82
2022/10/26 01:25:16;;;;;;;12.35;7.20;;;;;;;10.67;95.71;101076.69;4975380;28;20052;-83
2022/10/26 01:27:46;;;;;;;9.30;6.70;;;;;;;10.65;95.81;101075.00;4991716;28;20053;-83
2022/10/26 01:30:29;;;;;;;9.73;6.55;;;;;;;10.65;95.57;101069.75;4965121;28;20066;-82
2022/10/26 01:33:14;;;;;;;9.68;6.63;;;;;;;10.60;95.59;101071.75;4987013;28;20068;-82
2022/10/26 01:36:13;;;;;;;14.75;5.72;;;;;;;10.56;96.07;101064.97;4973500;28;20042;-83
2022/10/26 01:39:05;;;;;;;8.90;5.95;;;;;;;10.59;95.92;101059.53;4966304;28;20046;-83
2022/10/26 01:41:48;;;;;;;8.55;6.13;;;;;;;10.55;95.79;101063.25;4964385;28;20046;-82
2022/10/26 01:44:32;;;;;;;10.20;6.68;;;;;;;10.51;95.70;101056.44;4964143;28;20072;-84
2022/10/26 01:47:00;;;;;;;12.85;6.43;;;;;;;10.47;95.97;101059.31;4956413;28;20062;-82
2022/10/26 01:49:32;;;;;;;9.60;6.40;;;;;;;10.48;96.07;101061.00;4974330;28;20046;-83
2022/10/26 01:51:59;;;;;;;10.20;6.18;;;;;;;10.51;96.08;101058.22;4971025;28;20054;-83
2022/10/26 01:54:28;;;;;;;10.82;7.25;;;;;;;10.49;96.03;101063.59;4951776;28;20479;-83
2022/10/26 01:57:00;;;;;;;13.32;6.20;;;;;;;10.47;96.03;101054.91;4966606;28;20153;-83
2022/10/26 01:59:54;;;;;;;8.68;5.70;;;;;;;10.49;95.65;101057.44;4964355;28;20054;-83
2022/10/26 02:02:31;;;;;;;11.43;6.72;;;;;;;10.46;95.55;101055.00;4963568;28;20050;-83
2022/10/26 02:05:25;;;;;;;10.35;6.93;;;;;;;10.40;96.05;101048.25;4949878;28;20054;-83
2022/10/26 02:08:08;;;;;;;9.13;6.63;;;;;;;10.38;96.31;101045.69;4966509;28;20047;-83
2022/10/26 02:11:29;;;;;;;8.93;6.28;;;;;;;10.38;96.61;101044.84;4955921;28;20049;-84
2022/10/26 02:14:05;;;;;;;11.57;6.50;;;;;;;10.41;95.91;101046.47;4913355;29;20047;-84
2022/10/26 02:16:51;;;;;;;7.05;5.78;;;;;;;10.38;95.95;101056.22;4990314;28;20035;-83
2022/10/26 02:19:31;;;;;;;10.98;6.75;;;;;;;10.35;95.81;101045.84;4981184;28;20113;-82
2022/10/26 02:22:12;;;;;;;10.20;6.55;;;;;;;10.36;95.92;101052.84;4954663;28;20046;-85
2022/10/26 02:24:40;;;;;;;7.38;5.57;;;;;;;10.36;95.70;101052.00;4951332;28;20038;-82
2022/10/26 02:27:11;;;;;;;10.60;6.40;;;;;;;10.36;95.90;101041.47;4982346;28;20050;-83
2022/10/26 02:29:40;;;;;;;12.77;7.00;;;;;;;10.35;95.90;101040.56;4953297;28;20516;-83
2022/10/26 02:32:08;;;;;;;10.75;6.35;;;;;;;10.34;95.86;101038.03;4968422;28;20057;-83
2022/10/26 02:34:37;;;;;;;12.98;6.55;;;;;;;10.36;95.69;101033.56;4965502;28;20038;-83
2022/10/26 02:37:05;;;;;;;8.38;6.70;;;;;;;10.33;96.02;101041.59;4960864;28;20055;-83
2022/10/26 02:39:34;;;;;;;9.90;6.63;;;;;;;10.26;96.00;101037.56;4966163;28;20038;-83
2022/10/26 02:42:03;;;;;;;10.75;6.88;;;;;;;10.20;96.15;101036.09;4964275;28;20078;-83
2022/10/26 02:44:36;;;;;;;14.48;7.70;;;;;;;10.18;96.28;101045.84;4962076;28;20041;-82
2022/10/26 02:47:04;;;;;;;12.43;6.82;;;;;;;10.13;96.37;101043.44;4964404;28;20396;-83
2022/10/26 02:49:32;;;;;;;7.88;6.47;;;;;;;10.13;96.48;101051.34;4986611;28;20104;-83
2022/10/26 02:52:07;;;;;;;11.63;7.20;;;;;;;10.16;96.53;101055.56;4963128;28;20030;-82
2022/10/26 02:54:58;;;;;;;11.10;7.28;;;;;;;10.17;96.45;101046.75;4967757;28;20050;-82
2022/10/26 02:57:31;;;;;;;12.90;7.20;;;;;;;10.19;96.51;101055.44;4973748;28;20087;-82
2022/10/26 02:59:59;;;;;;;10.15;6.70;;;;;;;10.20;96.57;101049.22;4964660;28;20102;-83
2022/10/26 03:02:28;;;;;;;10.82;7.07;;;;;;;10.23;96.73;101053.50;4973912;28;20098;-82
2022/10/26 03:05:06;;;;;;;11.45;7.28;;;;;;;10.22;96.47;101054.41;4950280;28;20066;-83
2022/10/26 03:07:34;;;;;;;9.05;6.70;;;;;;;10.22;96.96;101059.66;4946254;28;20034;-83
2022/10/26 03:10:01;;;;;;;14.45;8.30;;;;;;;10.21;97.21;101050.09;4974263;28;20502;-84
2022/10/26 03:12:29;;;;;;;10.50;6.65;;;;;;;10.17;97.00;101052.00;4952616;28;20073;-82
2022/10/26 03:14:56;;;;;;;10.50;6.80;;;;;;;10.17;96.89;101052.00;4957686;28;20041;-82
2022/10/26 03:17:24;;;;;;;8.10;6.40;;;;;;;10.14;96.82;101058.28;4951861;28;20047;-82
2022/10/26 03:19:51;;;;;;;9.75;6.97;;;;;;;10.13;96.93;101056.59;4947145;28;20137;-83
2022/10/26 03:22:19;;;;;;;8.95;7.45;;;;;;;10.14;97.51;101055.66;4965370;28;20057;-83
2022/10/26 03:24:47;;;;;;;12.75;7.05;;;;;;;10.13;97.32;101058.34;4971937;28;20077;-83
2022/10/26 03:27:14;;;;;;;9.55;6.28;;;;;;;10.12;97.27;101057.50;4956809;28;20050;-83
2022/10/26 03:29:42;;;;;;;10.20;6.38;;;;;;;10.12;97.83;101054.88;4973436;28;20128;-83
2022/10/26 03:32:09;;;;;;;14.45;8.48;;;;;;;10.11;97.81;101063.69;4954727;28;20062;-82
2022/10/26 03:34:37;;;;;;;11.93;7.18;;;;;;;10.09;97.59;101062.94;4969238;28;20081;-83
2022/10/26 03:37:04;;;;;;;11.68;7.60;;;;;;;10.08;97.78;101053.31;4971637;28;20054;-82
2022/10/26 03:39:32;;;;;;;11.48;8.00;;;;;;;10.08;97.62;101063.84;4958901;28;20045;-83
2022/10/26 03:42:00;;;;;;;12.07;7.43;;;;;;;9.98;97.76;101056.50;4953472;28;20092;-82
2022/10/26 03:44:27;;;;;;;8.93;6.43;;;;;;;9.97;98.12;101053.03;4954394;28;20074;-83
2022/10/26 03:46:54;;;;;;;10.75;7.57;;;;;;;9.99;98.15;101058.19;4960700;28;20521;-82
2022/10/26 03:49:22;;;;;;;11.65;6.78;;;;;;;9.95;98.32;101054.88;4976327;28;20326;-84
2022/10/26 03:51:50;;;;;;;11.77;6.97;;;;;;;9.88;98.32;101058.72;4957661;28;20048;-83
2022/10/26 03:54:17;;;;;;;14.63;8.02;;;;;;;9.85;98.60;101062.34;4966190;28;20049;-83
2022/10/26 03:56:44;;;;;;;12.73;6.72;;;;;;;9.87;98.12;101063.16;4969805;28;20057;-84
2022/10/26 03:59:12;;;;;;;14.75;7.10;;;;;;;9.90;98.22;101059.50;4973794;28;20078;-82
2022/10/26 04:01:39;;;;;;;11.48;8.05;;;;;;;9.91;98.12;101058.59;4995871;28;20054;-82
2022/10/26 04:04:07;;;;;;;10.65;7.00;;;;;;;9.89;97.80;101055.16;4968267;28;20047;-82
2022/10/26 04:06:36;;;;;;;10.10;7.10;;;;;;;9.88;97.58;101056.94;4972059;28;20042;-82
2022/10/26 04:09:03;;;;;;;12.55;6.88;;;;;;;9.87;97.69;101059.66;4957838;28;20048;-82
2022/10/26 04:11:31;;;;;;;10.55;7.50;;;;;;;9.82;97.42;101054.63;4980905;28;20054;-82
2022/10/26 04:13:59;;;;;;;12.93;7.03;;;;;;;9.76;98.05;101057.53;4976989;28;20529;-83
2022/10/26 04:16:26;;;;;;;12.90;6.75;;;;;;;9.73;98.47;101056.88;4971018;28;20114;-83
2022/10/26 04:18:59;;;;;;;12.15;7.53;;;;;;;9.68;98.07;101053.56;4982766;28;20133;-83
2022/10/26 04:21:27;;;;;;;9.30;6.28;;;;;;;9.62;98.60;101060.00;4957268;28;20046;-82
2022/10/26 04:23:54;;;;;;;13.98;7.10;;;;;;;9.63;98.83;101064.31;4972167;28;20101;-82
2022/10/26 04:26:22;;;;;;;9.55;6.32;;;;;;;9.61;98.78;101059.16;4981704;28;20049;-82
2022/10/26 04:28:49;;;;;;;11.05;6.47;;;;;;;9.63;98.31;101059.91;4951839;28;20218;-82
2022/10/26 04:31:17;;;;;;;10.07;6.25;;;;;;;9.62;98.93;101065.25;4959506;28;20053;-82
2022/10/26 04:38:05;;;;;;;13.32;7.20;;;;;;;9.69;99.04;101064.03;4998069;28;20170;-83
2022/10/26 04:40:33;;;;;;;9.50;6.38;;;;;;;9.74;99.64;101063.81;4955273;28;20042;-82
2022/10/26 04:43:01;;;;;;;8.85;5.80;;;;;;;9.75;100.00;101065.50;4973991;28;20060;-82
2022/10/26 04:45:29;;;;;;;10.40;6.70;;;;;;;9.75;100.00;101065.50;4982911;28;20057;-82
2022/10/26 04:48:05;;;;;;;10.15;6.53;;;;;;;9.75;100.00;101065.50;4953100;28;20061;-82
2022/10/26 04:50:32;;;;;;;9.75;6.35;;;;;;;9.75;100.00;101070.78;4972321;28;20080;-82
2022/10/26 04:53:00;;;;;;;12.77;6.28;;;;;;;9.76;100.00;101069.84;4973996;28;20465;-82
2022/10/26 04:55:27;;;;;;;8.50;6.13;;;;;;;9.77;100.00;101071.53;4972072;28;20034;-82
2022/10/26 04:57:55;;;;;;;9.02;5.55;;;;;;;9.76;100.00;101062.81;4973888;28;20059;-81
2022/10/26 05:00:29;;;;;;;8.93;5.78;;;;;;;9.75;100.00;101066.38;4977915;28;20060;-83
2022/10/26 05:03:11;;;;;;;9.15;6.15;;;;;;;9.76;100.00;101067.22;4974780;28;20047;-82
2022/10/26 05:05:39;;;;;;;9.93;5.75;;;;;;;9.73;100.00;101062.13;4948036;28;20046;-83
2022/10/26 05:08:07;;;;;;;12.02;6.32;;;;;;;9.75;100.00;101070.78;4971333;28;20050;-82
2022/10/26 05:10:42;;;;;;;9.35;5.65;;;;;;;9.73;100.00;101059.50;4964580;28;20053;-81
2022/10/26 05:13:09;;;;;;;8.25;6.15;;;;;;;9.72;100.00;101055.13;4973297;28;20145;-82
2022/10/26 05:15:37;;;;;;;6.88;5.75;;;;;;;9.71;100.00;101062.19;4981119;28;20042;-82
2022/10/26 05:18:05;;;;;;;9.70;5.65;;;;;;;9.70;100.00;101057.84;4972671;28;20058;-82
2022/10/26 05:20:37;;;;;;;7.35;6.20;;;;;;;9.69;100.00;101060.56;4982900;28;20049;-81
2022/10/26 05:23:06;;;;;;;9.70;6.00;;;;;;;9.68;100.00;101064.09;4965233;28;20232;-82
2022/10/26 05:25:34;;;;;;;7.70;5.32;;;;;;;9.67;100.00;101063.25;4986318;28;20054;-82
2022/10/26 05:28:04;;;;;;;11.65;6.30;;;;;;;9.67;100.00;101072.91;4969838;28;20405;-82
2022/10/26 05:30:32;;;;;;;11.27;5.97;;;;;;;9.68;100.00;101071.97;4972906;28;20106;-82
2022/10/26 05:33:02;;;;;;;9.75;6.10;;;;;;;9.65;100.00;101070.38;4962804;28;20042;-82
2022/10/26 05:35:30;;;;;;;9.82;5.95;;;;;;;9.64;100.00;101069.53;4974775;28;20040;-82
2022/10/26 05:37:58;;;;;;;11.18;6.60;;;;;;;9.61;100.00;101063.56;4975069;28;20042;-83
2022/10/26 05:40:25;;;;;;;8.38;5.50;;;;;;;9.56;100.00;101061.16;4972072;28;20074;-83
2022/10/26 05:42:58;;;;;;;11.18;5.60;;;;;;;9.55;100.00;101066.47;4977545;28;20045;-82
2022/10/26 05:45:26;;;;;;;12.15;5.55;;;;;;;9.54;100.00;101064.75;4987374;28;20132;-83
2022/10/26 05:47:54;;;;;;;9.55;6.15;;;;;;;9.52;100.00;101064.84;4965662;28;20152;-82
2022/10/26 05:50:27;;;;;;;10.05;6.40;;;;;;;9.49;100.00;101070.22;4978392;28;20114;-83
2022/10/26 05:52:55;;;;;;;8.88;5.88;;;;;;;9.49;100.00;101080.75;4981303;28;20050;-82
2022/10/26 05:55:23;;;;;;;8.13;5.32;;;;;;;9.44;100.00;101084.53;4968497;28;20042;-82
2022/10/26 05:57:51;;;;;;;9.25;5.68;;;;;;;9.43;100.00;101085.44;4957064;28;20054;-82
2022/10/26 06:00:21;;;;;;;11.15;6.20;;;;;;;9.43;100.00;101081.03;4966595;28;20049;-82
2022/10/26 06:03:06;;;;;;;9.95;6.32;;;;;;;9.44;100.00;101090.63;4970173;28;20068;-82
2022/10/26 06:05:45;;;;;;;9.15;6.28;;;;;;;9.44;100.00;101079.25;4968991;28;20034;-82
2022/10/26 06:08:13;;;;;;;11.43;6.65;;;;;;;9.44;100.00;101087.16;4968202;28;20405;-82
2022/10/26 06:10:41;;;;;;;11.35;6.07;;;;;;;9.44;100.00;101079.25;4967221;28;20050;-82
2022/10/26 06:13:08;;;;;;;10.18;6.03;;;;;;;9.40;100.00;101078.53;4983277;28;20062;-81
2022/10/26 06:15:46;;;;;;;8.13;5.97;;;;;;;9.39;100.00;101085.59;4959256;28;20045;-82
2022/10/26 06:18:38;;;;;;;10.10;6.38;;;;;;;9.40;100.00;101083.81;4955771;28;21229;-82
2022/10/26 06:21:21;;;;;;;15.30;6.90;;;;;;;9.40;100.00;101086.44;4977726;28;20045;-82
2022/10/26 06:24:11;;;;;;;11.60;6.45;;;;;;;9.40;100.00;101086.44;4989933;28;20101;-81
2022/10/26 06:26:58;;;;;;;9.52;6.10;;;;;;;9.39;100.00;101087.38;4953441;28;20044;-82
2022/10/26 06:29:36;;;;;;;;;;;;;;;9.39;100.00;101090.84;4972663;28;20093;-81
2022/10/26 06:32:04;;;;;;;17.38;6.15;;;;;;;9.38;100.00;101099.66;4971505;28;19921;-82
2022/10/26 06:34:34;;;;;;;10.30;6.53;;;;;;;9.38;100.00;101094.41;4948741;28;20116;-81
2022/10/26 06:37:03;;;;;;;10.10;6.85;;;;;;;9.37;100.00;101095.31;4958849;28;20046;-82
2022/10/26 06:39:35;;;;;;;9.88;6.35;;;;;;;9.36;100.00;101103.25;4966573;28;20046;-82
2022/10/26 06:42:02;;;;;;;13.48;6.88;;;;;;;9.34;100.00;101108.59;4970751;28;20093;-82
2022/10/26 06:44:30;;;;;;;8.57;6.80;;;;;;;9.30;100.00;101108.81;4948283;28;20054;-82
2022/10/26 06:47:17;;;;;;;13.20;6.80;;;;;;;9.28;100.00;101105.41;4959978;28;20374;-82
2022/10/26 06:50:04;;;;;;;7.43;5.95;;;;;;;9.24;100.00;101112.56;4985743;28;20473;-83
2022/10/26 06:52:41;;;;;;;11.98;6.65;;;;;;;9.27;100.00;101107.16;4948795;28;20069;-82
2022/10/26 06:55:14;;;;;;;7.97;6.20;;;;;;;9.32;100.00;101115.72;4970119;28;20046;-83
2022/10/26 06:57:43;;;;;;;10.38;6.70;;;;;;;9.32;100.00;101113.09;4960945;28;20048;-83
2022/10/26 07:00:13;;;;;;;11.65;6.82;;;;;;;9.31;100.00;101116.59;4986116;28;20097;-83
2022/10/26 07:02:41;;;;;;;10.32;6.75;;;;;;;9.29;100.00;101115.00;4986844;28;20034;-82
2022/10/26 07:05:11;;;;;;;9.48;6.72;;;;;;;9.34;100.00;101113.84;4952796;28;20080;-83
2022/10/26 07:07:41;;;;;;;10.57;7.15;;;;;;;9.42;100.00;101116.13;4971150;28;20388;-82
2022/10/26 07:10:10;;;;;;;11.02;7.15;;;;;;;9.46;100.00;101107.19;4968096;28;20046;-83
2022/10/26 07:12:37;;;;;;;12.25;6.38;;;;;;;9.47;100.00;101108.88;5004051;28;20100;-81
2022/10/26 07:15:07;;;;;;;10.48;7.32;;;;;;;9.47;100.00;101105.41;4963312;28;20039;-82
2022/10/26 07:17:47;;;;;;;15.98;7.65;;;;;;;9.46;100.00;101112.44;4965479;28;20039;-81
2022/10/26 07:20:16;;;;;;;14.38;7.75;;;;;;;9.51;100.00;101113.09;4959512;28;20038;-82
2022/10/26 07:22:44;;;;;;;12.70;7.90;;;;;;;9.55;100.00;101109.38;4950700;28;20052;-83
2022/10/26 07:25:11;;;;;;;15.68;8.10;;;;;;;9.58;100.00;101111.84;4965240;28;20200;-82
2022/10/26 07:27:42;;;;;;;13.18;8.55;;;;;;;9.61;100.00;101113.50;4974121;28;20042;-82
2022/10/26 07:30:10;;;;;;;10.88;7.13;;;;;;;9.63;100.00;101114.25;4973237;28;20101;-82
2022/10/26 07:32:38;;;;;;;13.35;7.32;;;;;;;9.66;100.00;101118.53;4994373;28;20034;-82
2022/10/26 07:35:06;;;;;;;10.45;6.72;;;;;;;9.70;100.00;101113.06;4972946;28;20042;-82
2022/10/26 07:37:33;;;;;;;9.85;6.70;;;;;;;9.75;100.00;101120.72;4985900;28;20452;-82
2022/10/26 07:40:01;;;;;;;9.57;7.50;;;;;;;9.79;100.00;101103.88;4960565;28;20069;-82
2022/10/26 07:46:46;;;;;;;10.15;7.50;;;;;;;9.93;100.00;101109.31;5004891;28;20053;-81
2022/10/26 07:49:14;;;;;;;14.10;8.35;;;;;;;9.97;100.00;101113.50;4984753;28;20133;-81
2022/10/26 07:51:45;;;;;;;17.23;9.10;;;;;;;10.00;100.00;101113.38;4987267;28;20064;-81
2022/10/26 07:54:13;;;;;;;11.38;8.98;;;;;;;10.05;100.00;101118.41;4985599;28;20042;-81
2022/10/26 07:56:40;;;;;;;11.98;8.90;;;;;;;10.12;100.00;101117.16;4966585;28;20118;-82
2022/10/26 07:59:11;;;;;;;15.43;9.38;;;;;;;10.17;100.00;101115.16;4990413;28;20398;-83
2022/10/26 08:01:38;;;;;;;17.35;9.50;;;;;;;10.18;100.00;101109.00;4979500;28;20038;-82
2022/10/26 08:04:06;;;;;;;14.68;8.93;;;;;;;10.20;100.00;101115.00;4965575;28;20101;-82
2022/10/26 08:06:33;;;;;;;15.55;9.57;;;;;;;10.24;100.00;101113.97;4967618;28;20030;-83
2022/10/26 08:09:01;;;;;;;17.20;9.48;;;;;;;10.29;100.00;101114.59;4980724;28;20359;-83
2022/10/26 08:11:35;;;;;;;17.40;9.57;;;;;;;10.31;100.00;101117.13;4980726;28;20046;-83
2022/10/26 08:14:04;;;;;;;13.20;8.50;;;;;;;10.39;100.00;101114.97;4962367;28;20333;-83
2022/10/26 08:16:33;;;;;;;19.55;8.32;;;;;;;10.46;100.00;101120.78;4971066;28;20031;-83
2022/10/26 08:19:01;;;;;;;15.95;8.75;;;;;;;10.55;100.00;101120.34;4975656;28;20061;-83
2022/10/26 08:21:28;;;;;;;14.50;9.40;;;;;;;10.57;100.00;101118.47;4981852;28;20041;-81
2022/10/26 08:24:07;;;;;;;12.50;7.45;;;;;;;10.61;100.00;101114.75;4994333;28;20062;-83
2022/10/26 08:26:34;;;;;;;14.65;7.28;;;;;;;10.68;100.00;101124.03;4982296;28;20049;-83
2022/10/26 08:29:02;;;;;;;15.43;8.70;;;;;;;10.70;100.00;101127.44;4960465;28;20959;-82
2022/10/26 08:31:30;;;;;;;13.73;8.68;;;;;;;10.76;100.00;101123.63;4996622;28;20050;-83
2022/10/26 08:33:58;;;;;;;14.82;7.45;;;;;;;10.82;100.00;101129.44;4985890;28;20061;-83
2022/10/26 08:36:27;;;;;;;10.82;7.13;;;;;;;10.86;100.00;101120.44;4988742;28;20047;-83
2022/10/26 08:38:54;;;;;;;13.20;7.20;;;;;;;10.91;100.00;101117.56;4977261;28;20058;-83
2022/10/26 08:41:37;;;;;;;16.35;8.15;;;;;;;10.93;100.00;101118.34;4975225;28;20100;-82
2022/10/26 08:44:15;;;;;;;11.43;8.25;;;;;;;10.99;100.00;101120.66;4970189;28;20057;-82
2022/10/26 08:46:45;;;;;;;11.32;7.63;;;;;;;11.07;99.96;101126.34;4979736;28;20397;-85
2022/10/26 08:49:25;;;;;;;13.50;8.10;;;;;;;11.08;100.00;101128.09;4978751;28;20050;-82
2022/10/26 08:51:57;;;;;;;13.65;7.70;;;;;;;11.09;100.00;101118.38;4989448;28;20115;-84
2022/10/26 08:54:33;;;;;;;11.77;7.15;;;;;;;11.16;100.00;101122.38;4972262;28;20081;-83
2022/10/26 08:57:09;;;;;;;13.90;8.55;;;;;;;11.25;100.00;101121.03;4997554;28;20053;-83
2022/10/26 08:59:45;;;;;;;12.55;7.72;;;;;;;11.29;100.00;101130.50;4973709;28;20050;-83
2022/10/26 09:02:15;;;;;;;;;;;;;;;11.35;100.00;101119.63;4954574;28;20054;-83
2022/10/26 09:04:43;;;;;;;16.35;7.28;;;;;;;11.45;100.00;101119.97;4984552;28;19922;-83
2022/10/26 09:07:14;;;;;;;13.48;7.53;;;;;;;11.51;100.00;101125.75;4956646;28;20042;-83
2022/10/26 09:10:04;;;;;;;17.95;8.38;;;;;;;11.60;100.00;101116.50;4992116;28;20138;-82
2022/10/26 09:12:52;;;;;;;18.00;7.93;;;;;;;11.70;99.97;101128.22;4970689;28;20054;-82
2022/10/26 09:15:26;;;;;;;14.90;9.23;;;;;;;11.77;100.00;101124.31;4953784;28;20039;-83
2022/10/26 09:18:02;;;;;;;13.25;8.23;;;;;;;11.82;100.00;101121.41;4973666;28;20054;-85
2022/10/26 09:20:39;;;;;;;;;;;;;;;11.87;100.00;101125.53;4978103;28;20499;-83
2022/10/26 09:23:08;;;;;;;;;;;;;;;11.92;100.00;101135.81;4994953;28;20021;-83
2022/10/26 09:25:38;;;;;;;15.40;9.32;;;;;;;11.99;99.72;101129.28;4995410;28;20105;-84
2022/10/26 09:28:17;;;;;;;15.98;9.27;;;;;;;12.07;100.00;101124.41;4973068;28;20052;-82
2022/10/26 09:31:01;;;;;;;13.35;8.68;;;;;;;12.13;99.97;101134.59;4948543;28;20142;-82
2022/10/26 09:33:42;;;;;;;17.25;8.27;;;;;;;12.22;99.56;101127.94;4976781;28;20081;-82
2022/10/26 09:36:19;;;;;;;19.35;10.48;;;;;;;12.31;100.00;101131.84;4969850;28;20129;-82
2022/10/26 09:38:59;;;;;;;12.43;8.02;;;;;;;12.38;99.78;101128.78;4980651;28;20058;-81
2022/10/26 09:41:39;;;;;;;13.18;8.80;;;;;;;12.48;99.49;101122.97;4954171;28;20057;-83
2022/10/26 09:44:42;;;;;;;18.75;9.13;;;;;;;12.54;99.05;101131.34;4964757;28;20127;-82
2022/10/26 09:47:18;;;;;;;14.15;7.50;;;;;;;12.68;98.35;101139.31;4958840;28;20058;-82
2022/10/26 09:49:49;;;;;;;13.60;7.78;;;;;;;12.78;98.62;101136.09;4981727;28;20050;-82
2022/10/26 09:52:17;;;;;;;11.07;7.90;;;;;;;12.90;97.90;101141.50;4962036;28;20097;-83
2022/10/26 09:54:48;;;;;;;9.75;7.57;;;;;;;13.01;97.84;101145.28;4962592;28;20042;-83
2022/10/26 09:57:22;;;;;;;11.23;7.00;;;;;;;13.09;97.34;101143.03;4971547;28;20074;-83
2022/10/26 09:59:51;;;;;;;10.32;7.50;;;;;;;13.18;96.87;101143.31;4952588;28;20071;-83
2022/10/26 10:02:36;;;;;;;12.05;7.07;;;;;;;13.28;96.99;101145.41;4955740;28;20049;-83
2022/10/26 10:05:39;;;;;;;;;;;;;;;13.37;96.59;101143.09;4974493;28;20110;-83
2022/10/26 10:08:24;;;;;;;11.93;7.40;;;;;;;13.50;96.10;101142.28;4983518;28;19921;-83
2022/10/26 10:11:02;;;;;;;8.57;6.65;;;;;;;13.61;95.48;101148.63;4960573;28;20492;-82
2022/10/26 10:13:33;;;;;;;11.10;7.40;;;;;;;13.72;95.25;101153.22;4972030;28;20070;-83
2022/10/26 10:16:20;;;;;;;12.73;7.38;;;;;;;13.81;94.60;101144.69;4961073;28;20047;-83
2022/10/26 10:18:55;;;;;;;13.55;7.05;;;;;;;13.87;94.28;101148.75;4977523;28;20046;-82
2022/10/26 10:21:39;;;;;;;11.90;6.93;;;;;;;14.03;93.24;101146.81;4959670;28;20042;-83
2022/10/26 10:24:32;;;;;;;12.10;6.28;;;;;;;14.15;93.01;101145.16;4981551;28;20053;-83
2022/10/26 10:27:04;;;;;;;10.68;6.30;;;;;;;14.23;92.56;101134.06;4990609;28;20263;-82
2022/10/26 10:29:39;;;;;;;18.63;6.18;;;;;;;14.36;91.67;101142.88;4950931;28;20413;-83
2022/10/26 10:32:24;;;;;;;12.77;5.13;;;;;;;14.51;91.25;101139.25;4960894;28;20050;-83
2022/10/26 10:34:55;;;;;;;;;;;;;;;14.64;90.19;101145.44;4971503;28;20062;-83
2022/10/26 10:37:29;;;;;;;10.90;4.38;;;;;;;14.77;89.72;101137.50;4955209;28;19922;-81
2022/10/26 10:40:06;;;;;;;8.40;3.70;;;;;;;14.94;89.01;101141.63;4964383;28;20484;-81
2022/10/26 10:42:37;;;;;;;15.82;5.45;;;;;;;15.11;87.46;101138.66;4957886;28;20101;-83
2022/10/26 10:45:30;;;;;;;10.50;3.95;;;;;;;15.29;87.46;101141.81;4983429;28;20441;-83
2022/10/26 10:48:34;;;;;;;5.90;3.78;;;;;;;15.44;85.61;101143.41;4958125;28;20042;-83
2022/10/26 10:51:11;;;;;;;9.20;3.30;;;;;;;15.57;84.49;101139.84;4975979;28;20034;-82
2022/10/26 10:53:48;;;;;;;6.63;3.40;;;;;;;15.72;83.53;101138.81;4977530;28;20093;-82
2022/10/26 10:56:40;;;;;;;7.63;2.38;;;;;;;16.00;82.05;101142.94;4962896;28;20050;-81
2022/10/26 10:59:29;;;;;;;5.20;2.22;;;;;;;16.23;79.44;101132.44;4952509;28;20222;-83
2022/10/26 11:02:22;;;;;;;5.63;2.35;;;;;;;16.37;79.13;101134.91;4962105;28;20046;-82
2022/10/26 11:05:17;;;;;;;5.72;2.40;;;;;;;16.54;76.74;101128.31;4964630;28;20065;-83
2022/10/26 11:07:56;;;;;;;8.25;2.67;;;;;;;16.71;76.48;101149.16;5000156;28;20537;-83
2022/10/26 11:10:27;;;;;;;7.78;2.90;;;;;;;16.90;74.52;101140.63;4953396;28;20066;-83
2022/10/26 11:13:01;;;;;;;7.35;2.33;;;;;;;17.07;74.36;101139.34;4964071;28;20120;-83
2022/10/26 11:15:31;;;;;;;4.63;2.20;;;;;;;17.18;74.53;101142.81;4947361;28;20045;-83
2022/10/26 11:18:18;;;;;;;5.22;2.40;;;;;;;17.49;73.48;101142.22;4962033;28;20054;-82
2022/10/26 11:20:57;;;;;;;5.03;2.40;;;;;;;17.76;71.30;101145.38;4954898;28;20060;-83
2022/10/26 11:23:59;;;;;;;5.15;2.08;;;;;;;17.96;71.18;101141.91;4984398;28;20057;-82
2022/10/26 11:26:32;;;;;;;10.30;1.95;;;;;;;18.17;70.09;101139.31;4966613;28;20054;-82
2022/10/26 11:29:39;;;;;;;4.43;1.88;;;;;;;18.50;68.23;101139.28;4951231;28;20053;-82
2022/10/26 11:32:20;;;;;;;4.40;1.92;;;;;;;18.76;67.05;101124.63;4979147;28;20049;-83
2022/10/26 11:35:14;;;;;;;4.95;2.17;;;;;;;18.93;66.08;101136.53;4958080;28;20038;-83
2022/10/26 11:37:53;;;;;;;6.88;2.65;;;;;;;19.12;64.05;101128.59;4962453;28;20227;-82
2022/10/26 11:44:52;;;;;;;4.03;2.03;;;;;;;20.81;59.63;101121.44;5005849;28;20074;-83
2022/10/26 11:47:33;;;;;;;7.32;2.20;;;;;;;21.33;58.92;101121.81;4947854;28;20367;-83
2022/10/26 11:50:12;;;;;;;4.05;2.08;;;;;;;21.72;55.85;101112.59;4955069;28;20081;-84
2022/10/26 11:53:03;;;;;;;5.45;1.77;;;;;;;22.08;55.22;101117.13;4979550;28;20042;-83
2022/10/26 11:55:31;;;;;;;9.50;2.63;;;;;;;22.32;55.82;101112.00;5006592;28;20046;-83
2022/10/26 11:57:58;;;;;;;9.75;2.25;;;;;;;22.49;55.07;101113.84;4967973;28;20053;-81
2022/10/26 12:00:26;;;;;;;5.55;2.00;;;;;;;22.78;55.58;101109.16;4964889;28;20441;-83
2022/10/26 12:03:05;;;;;;;6.63;1.77;;;;;;;22.83;53.35;101114.88;4959948;28;20042;-83
2022/10/26 12:05:39;;;;;;;5.80;1.27;;;;;;;22.88;52.98;101117.97;4970771;28;20097;-83